Time;durP1;ratioP1;P1;durP2;ratioP2;P2;SDS_P1;SDS_P2;PMS_P1;PMS_P2;Temp;Humidity;BMP_temperature;BMP_pressure;BME280_temperature;BME280_humidity;BME280_pressure;Samples;Min_cycle;Max_cycle;Signal;HPM_P1;HPM_P2
2022/07/30 00:00:38;;;;;;;;;;;21.90;64.50;;;;;;6189876;23;860;-69
2022/07/30 00:03:03;;;;;;;;;;;21.90;64.50;;;;;;6216021;23;823;-69
2022/07/30 00:05:29;;;;;;;;;;;21.90;64.50;;;;;;6189350;23;1936;-70
2022/07/30 00:07:54;;;;;;;;;;;21.90;64.50;;;;;;6216241;23;1292;-70
2022/07/30 00:10:21;;;;;;;;;;;21.90;64.50;;;;;;6189559;23;805;-70
2022/07/30 00:12:47;;;;;;;;;;;21.90;64.50;;;;;;6216116;23;963;-70
2022/07/30 00:15:12;;;;;;;;;;;21.90;64.60;;;;;;6189335;23;804;-70
2022/07/30 00:17:38;;;;;;;;;;;21.90;64.60;;;;;;6188774;23;1328;-70
2022/07/30 00:20:03;;;;;;;;;;;21.90;64.60;;;;;;6215887;23;1325;-70
2022/07/30 00:22:29;;;;;;;;;;;21.90;64.60;;;;;;6164037;23;1308;-69
2022/07/30 00:24:54;;;;;;;;;;;21.90;64.60;;;;;;6215575;23;796;-70
2022/07/30 00:27:20;;;;;;;;;;;21.90;64.60;;;;;;6215527;23;1919;-70
2022/07/30 00:29:45;;;;;;;;;;;21.90;64.70;;;;;;6215835;23;1151;-70
2022/07/30 00:32:11;;;;;;;;;;;21.90;64.70;;;;;;6189656;23;951;-69
2022/07/30 00:34:36;;;;;;;;;;;21.90;64.70;;;;;;6215457;23;1212;-68
2022/07/30 00:37:02;;;;;;;;;;;21.90;64.70;;;;;;6188905;23;1479;-68
2022/07/30 00:39:29;;;;;;;;;;;21.90;64.70;;;;;;6189043;23;1285;-68
2022/07/30 00:41:54;;;;;;;;;;;21.90;64.70;;;;;;6216045;23;780;-69
2022/07/30 00:44:20;;;;;;;;;;;21.90;64.70;;;;;;6215785;23;984;-68
2022/07/30 00:46:45;;;;;;;;;;;21.90;64.70;;;;;;6188524;23;1940;-69
2022/07/30 00:49:11;;;;;;;;;;;21.90;64.70;;;;;;6215615;23;1207;-69
2022/07/30 00:51:36;;;;;;;;;;;21.90;64.70;;;;;;6164568;23;1239;-68
2022/07/30 00:54:01;;;;;;;;;;;21.90;64.70;;;;;;6189218;23;990;-69
2022/07/30 00:56:27;;;;;;;;;;;21.90;64.70;;;;;;6214653;23;1065;-70
2022/07/30 00:58:52;;;;;;;;;;;21.90;64.80;;;;;;6188872;23;1199;-70
2022/07/30 01:01:18;;;;;;;;;;;21.90;64.80;;;;;;6215453;23;1001;-70
2022/07/30 01:03:43;;;;;;;;;;;21.90;64.80;;;;;;6188991;23;832;-70
2022/07/30 01:06:09;;;;;;;;;;;21.90;64.80;;;;;;6215127;23;1932;-69
2022/07/30 01:08:34;;;;;;;;;;;21.90;64.80;;;;;;6189526;23;1227;-70
2022/07/30 01:10:59;;;;;;;;;;;21.90;64.80;;;;;;6215433;23;990;-70
2022/07/30 01:13:25;;;;;;;;;;;21.90;64.80;;;;;;6215113;23;833;-70
2022/07/30 01:15:50;;;;;;;;;;;21.90;64.80;;;;;;6188489;23;784;-70
2022/07/30 01:18:16;;;;;;;;;;;21.90;64.80;;;;;;6214947;23;1259;-70
2022/07/30 01:20:47;;;;;;;;;;;21.90;64.90;;;;;;6189064;23;1010;-69
2022/07/30 01:23:16;;;;;;;;;;;21.90;64.90;;;;;;6188759;23;907;-68
2022/07/30 01:25:41;;;;;;;;;;;21.90;64.90;;;;;;6214770;23;1926;-69
2022/07/30 01:28:08;;;;;;;;;;;21.90;64.90;;;;;;6214855;23;1273;-68
2022/07/30 01:30:34;;;;;;;;;;;21.90;64.90;;;;;;6188709;23;1057;-69
2022/07/30 01:33:00;;;;;;;;;;;21.90;64.90;;;;;;6188628;23;1046;-68
2022/07/30 01:35:26;;;;;;;;;;;21.90;64.90;;;;;;6188269;23;781;-68
2022/07/30 01:37:52;;;;;;;;;;;21.90;64.90;;;;;;6188518;23;1290;-68
2022/07/30 01:40:18;;;;;;;;;;;21.90;64.90;;;;;;6188677;23;842;-68
2022/07/30 01:42:43;;;;;;;;;;;21.90;64.90;;;;;;6188640;23;920;-69
2022/07/30 01:45:09;;;;;;;;;;;21.90;64.90;;;;;;6163138;23;1389;-67
2022/07/30 01:47:35;;;;;;;;;;;21.90;65.00;;;;;;6187792;23;1935;-68
2022/07/30 01:50:00;;;;;;;;;;;21.90;65.00;;;;;;6189207;23;1261;-69
2022/07/30 01:52:26;;;;;;;;;;;21.90;65.00;;;;;;6188525;23;1015;-69
2022/07/30 01:54:51;;;;;;;;;;;21.90;65.00;;;;;;6188970;23;773;-69
2022/07/30 01:57:17;;;;;;;;;;;21.90;65.00;;;;;;6188494;23;931;-69
2022/07/30 01:59:44;;;;;;;;;;;21.90;65.00;;;;;;6187988;23;1290;-69
2022/07/30 02:02:09;;;;;;;;;;;21.90;65.00;;;;;;6215195;23;796;-69
2022/07/30 02:04:35;;;;;;;;;;;21.90;65.00;;;;;;6188147;23;876;-69
2022/07/30 02:07:17;;;;;;;;;;;21.90;65.10;;;;;;6187912;23;1893;-70
2022/07/30 02:09:47;;;;;;;;;;;21.90;65.00;;;;;;6188544;23;1270;-68
2022/07/30 02:12:28;;;;;;;;;;;21.90;65.10;;;;;;6188259;23;838;-69
2022/07/30 02:14:56;;;;;;;;;;;21.90;65.10;;;;;;6190497;23;761;-68
2022/07/30 02:17:23;;;;;;;;;;;21.90;65.10;;;;;;6213871;23;990;-68
2022/07/30 02:19:50;;;;;;;;;;;21.90;65.10;;;;;;6188668;23;1304;-69
2022/07/30 02:22:15;;;;;;;;;;;21.90;65.10;;;;;;6188814;23;1046;-70
2022/07/30 02:24:41;;;;;;;;;;;21.90;65.10;;;;;;6187561;23;899;-69
2022/07/30 02:27:11;;;;;;;;;;;21.90;65.10;;;;;;6187229;23;1881;-69
2022/07/30 02:29:37;;;;;;;;;;;21.90;65.10;;;;;;6188110;23;1390;-69
2022/07/30 02:32:07;;;;;;;;;;;21.90;65.10;;;;;;6188649;23;946;-69
2022/07/30 02:34:32;;;;;;;;;;;21.90;65.20;;;;;;6188492;23;812;-69
2022/07/30 02:36:58;;;;;;;;;;;21.90;65.10;;;;;;6187640;23;852;-69
2022/07/30 02:39:24;;;;;;;;;;;21.90;65.20;;;;;;6188305;23;1277;-70
2022/07/30 02:41:49;;;;;;;;;;;21.90;65.20;;;;;;6188732;23;845;-70
2022/07/30 02:44:15;;;;;;;;;;;21.90;65.20;;;;;;6187830;23;862;-70
2022/07/30 02:46:41;;;;;;;;;;;21.90;65.20;;;;;;6162553;23;1901;-70
2022/07/30 02:49:06;;;;;;;;;;;21.90;65.20;;;;;;6188152;23;1198;-70
2022/07/30 02:51:32;;;;;;;;;;;21.90;65.20;;;;;;6188500;23;792;-70
2022/07/30 02:53:57;;;;;;;;;;;21.90;65.20;;;;;;6187988;23;828;-70
2022/07/30 02:56:23;;;;;;;;;;;21.90;65.20;;;;;;6188170;23;746;-70
2022/07/30 02:58:48;;;;;;;;;;;21.90;65.20;;;;;;6214769;23;1272;-69
2022/07/30 03:01:14;;;;;;;;;;;21.90;65.20;;;;;;6214718;23;919;-70
2022/07/30 03:03:41;;;;;;;;;;;21.90;65.20;;;;;;6214761;23;781;-70
2022/07/30 03:06:07;;;;;;;;;;;21.90;65.30;;;;;;6187490;23;1928;-69
2022/07/30 03:08:32;;;;;;;;;;;21.90;65.20;;;;;;6187919;23;1199;-70
2022/07/30 03:10:58;;;;;;;;;;;21.90;65.20;;;;;;6188255;23;803;-70
2022/07/30 03:13:23;;;;;;;;;;;21.90;65.30;;;;;;6162715;23;1244;-69
2022/07/30 03:15:49;;;;;;;;;;;21.90;65.30;;;;;;6214037;23;823;-70
2022/07/30 03:18:15;;;;;;;;;;;21.90;65.30;;;;;;6187543;23;1204;-69
2022/07/30 03:20:41;;;;;;;;;;;21.90;65.40;;;;;;6188224;23;931;-70
2022/07/30 03:23:06;;;;;;;;;;;21.90;65.40;;;;;;6187976;23;788;-70
2022/07/30 03:25:32;;;;;;;;;;;21.90;65.30;;;;;;6187925;23;1934;-69
2022/07/30 03:27:58;;;;;;;;;;;21.90;65.40;;;;;;6187318;23;1272;-70
2022/07/30 03:30:23;;;;;;;;;;;21.90;65.40;;;;;;6212209;22;2011;-68
2022/07/30 03:32:49;;;;;;;;;;;21.90;65.40;;;;;;6213052;23;1048;-68
2022/07/30 03:35:15;;;;;;;;;;;21.90;65.40;;;;;;6212199;23;921;-68
2022/07/30 03:37:40;;;;;;;;;;;21.90;65.40;;;;;;6212469;23;1046;-68
2022/07/30 03:40:06;;;;;;;;;;;21.90;65.40;;;;;;6213223;23;1220;-68
2022/07/30 03:42:32;;;;;;;;;;;21.90;65.40;;;;;;6213198;23;974;-68
2022/07/30 03:44:58;;;;;;;;;;;21.90;65.40;;;;;;6212677;23;827;-68
2022/07/30 03:47:23;;;;;;;;;;;21.90;65.40;;;;;;6212714;23;1892;-68
2022/07/30 03:49:49;;;;;;;;;;;21.90;66.20;;;;;;6213198;23;1676;-68
2022/07/30 03:52:14;;;;;;;;;;;21.90;65.50;;;;;;6214137;23;994;-68
2022/07/30 03:54:39;;;;;;;;;;;21.90;65.40;;;;;;6216076;23;1009;-68
2022/07/30 03:57:05;;;;;;;;;;;21.90;65.40;;;;;;6214385;23;1021;-68
2022/07/30 03:59:30;;;;;;;;;;;21.90;65.50;;;;;;6214741;23;1202;-68
2022/07/30 04:02:02;;;;;;;;;;;21.90;65.50;;;;;;6214438;23;1046;-68
2022/07/30 04:04:29;;;;;;;;;;;21.90;65.50;;;;;;6214830;23;823;-68
2022/07/30 04:06:55;;;;;;;;;;;21.90;65.50;;;;;;6214016;23;1943;-68
2022/07/30 04:09:20;;;;;;;;;;;21.90;65.50;;;;;;6214841;23;1283;-68
2022/07/30 04:11:45;;;;;;;;;;;21.90;65.50;;;;;;6216536;23;942;-68
2022/07/30 04:14:11;;;;;;;;;;;21.90;65.50;;;;;;6215570;23;911;-68
2022/07/30 04:16:45;;;;;;;;;;;21.90;65.50;;;;;;6214238;23;1415;-68
2022/07/30 04:19:12;;;;;;;;;;;21.90;65.50;;;;;;6216232;23;1261;-68
2022/07/30 04:21:37;;;;;;;;;;;21.90;65.50;;;;;;6214707;23;1080;-68
2022/07/30 04:24:03;;;;;;;;;;;21.90;65.50;;;;;;6214272;23;796;-68
2022/07/30 04:26:30;;;;;;;;;;;21.90;65.60;;;;;;6214346;23;1893;-68
2022/07/30 04:28:56;;;;;;;;;;;21.90;65.60;;;;;;6216122;23;1263;-68
2022/07/30 04:31:21;;;;;;;;;;;21.90;65.60;;;;;;6214776;23;1069;-68
2022/07/30 04:33:47;;;;;;;;;;;21.90;65.60;;;;;;6214188;23;1018;-68
2022/07/30 04:36:12;;;;;;;;;;;21.90;65.60;;;;;;6213881;23;836;-68
2022/07/30 04:38:38;;;;;;;;;;;21.90;65.60;;;;;;6214390;23;1286;-66
2022/07/30 04:41:03;;;;;;;;;;;21.90;65.60;;;;;;6215941;23;1187;-68
2022/07/30 04:43:29;;;;;;;;;;;21.90;65.60;;;;;;6216173;23;959;-69
2022/07/30 04:45:54;;;;;;;;;;;21.90;65.60;;;;;;6203312;23;1893;-67
2022/07/30 04:48:19;;;;;;;;;;;21.90;65.60;;;;;;6213587;23;776;-66
2022/07/30 04:50:45;;;;;;;;;;;21.90;65.60;;;;;;6214523;23;1178;-67
2022/07/30 04:53:11;;;;;;;;;;;21.90;65.70;;;;;;6212737;23;804;-66
2022/07/30 04:55:38;;;;;;;;;;;21.90;65.60;;;;;;6212720;23;907;-67
2022/07/30 04:58:03;;;;;;;;;;;21.90;65.60;;;;;;6214951;23;850;-66
2022/07/30 05:00:28;;;;;;;;;;;21.90;65.60;;;;;;6212714;23;1192;-66
2022/07/30 05:02:54;;;;;;;;;;;21.90;65.70;;;;;;6213224;23;927;-66
2022/07/30 05:05:19;;;;;;;;;;;21.90;65.70;;;;;;6212650;23;1927;-67
2022/07/30 05:07:45;;;;;;;;;;;21.90;65.70;;;;;;6212527;23;1045;-67
2022/07/30 05:10:10;;;;;;;;;;;21.90;65.70;;;;;;6213103;23;1327;-67
2022/07/30 05:12:36;;;;;;;;;;;21.90;65.70;;;;;;6214967;23;755;-67
2022/07/30 05:15:04;;;;;;;;;;;21.90;65.70;;;;;;6214328;23;809;-66
2022/07/30 05:17:29;;;;;;;;;;;21.90;65.70;;;;;;6212060;23;997;-67
2022/07/30 05:19:55;;;;;;;;;;;21.90;65.70;;;;;;6214180;23;1286;-65
2022/07/30 05:22:20;;;;;;;;;;;21.90;65.80;;;;;;6214811;23;772;-66
2022/07/30 05:24:46;;;;;;;;;;;21.90;65.80;;;;;;6214169;23;918;-65
2022/07/30 05:27:11;;;;;;;;;;;21.90;65.80;;;;;;6214382;23;1889;-65
2022/07/30 05:29:36;;;;;;;;;;;21.90;65.80;;;;;;6213964;23;1206;-67
2022/07/30 05:32:02;;;;;;;;;;;21.90;65.80;;;;;;6214614;23;764;-66
2022/07/30 05:34:27;;;;;;;;;;;21.90;65.80;;;;;;6212250;23;849;-67
2022/07/30 05:36:53;;;;;;;;;;;21.90;65.80;;;;;;6212218;23;1205;-66
2022/07/30 05:39:18;;;;;;;;;;;21.90;65.80;;;;;;6212856;23;1300;-67
2022/07/30 05:41:44;;;;;;;;;;;21.90;65.80;;;;;;6212837;23;821;-66
2022/07/30 05:44:09;;;;;;;;;;;21.90;65.80;;;;;;6214023;23;1057;-67
2022/07/30 05:46:35;;;;;;;;;;;21.90;65.80;;;;;;6213102;23;1901;-65
2022/07/30 05:49:00;;;;;;;;;;;21.90;65.80;;;;;;6214082;23;1266;-66
2022/07/30 05:51:26;;;;;;;;;;;21.90;65.80;;;;;;6212231;23;1941;-66
2022/07/30 05:53:51;;;;;;;;;;;21.90;65.80;;;;;;6214322;23;764;-66
2022/07/30 05:56:17;;;;;;;;;;;21.90;65.80;;;;;;6211634;23;1307;-66
2022/07/30 05:58:42;;;;;;;;;;;21.90;65.80;;;;;;6212908;23;880;-68
2022/07/30 06:01:08;;;;;;;;;;;21.90;65.80;;;;;;6187177;23;1147;-67
2022/07/30 06:03:33;;;;;;;;;;;21.90;65.80;;;;;;6213674;23;769;-65
2022/07/30 06:05:59;;;;;;;;;;;21.90;65.80;;;;;;6212131;23;1881;-65
2022/07/30 06:08:24;;;;;;;;;;;21.90;64.60;;;;;;6214294;23;844;-66
2022/07/30 06:10:50;;;;;;;;;;;21.90;63.30;;;;;;6213761;23;1190;-65
2022/07/30 06:13:15;;;;;;;;;;;21.90;63.00;;;;;;6214181;23;904;-64
2022/07/30 06:15:40;;;;;;;;;;;21.90;62.90;;;;;;6212608;23;923;-65
2022/07/30 06:18:06;;;;;;;;;;;21.90;62.90;;;;;;6213548;23;990;-66
2022/07/30 06:20:31;;;;;;;;;;;21.90;62.40;;;;;;6212071;23;1245;-66
2022/07/30 06:22:57;;;;;;;;;;;21.90;63.30;;;;;;6213720;23;993;-65
2022/07/30 06:25:22;;;;;;;;;;;21.90;62.70;;;;;;6213758;23;1938;-65
2022/07/30 06:27:48;;;;;;;;;;;21.90;62.00;;;;;;6211605;23;1022;-65
2022/07/30 06:30:13;;;;;;;;;;;21.90;61.80;;;;;;6213358;23;1301;-67
2022/07/30 06:32:39;;;;;;;;;;;21.90;61.80;;;;;;6211917;23;813;-67
2022/07/30 06:35:04;;;;;;;;;;;21.90;61.00;;;;;;6212731;23;796;-67
2022/07/30 06:37:30;;;;;;;;;;;21.90;60.90;;;;;;6211764;23;911;-67
2022/07/30 06:39:55;;;;;;;;;;;21.90;60.60;;;;;;6186920;23;1225;-67
2022/07/30 06:42:21;;;;;;;;;;;21.80;60.80;;;;;;6213884;23;776;-67
2022/07/30 06:44:46;;;;;;;;;;;21.80;60.80;;;;;;6212261;23;816;-67
2022/07/30 06:47:12;;;;;;;;;;;21.90;60.60;;;;;;6211630;23;1898;-67
2022/07/30 06:49:37;;;;;;;;;;;21.90;61.00;;;;;;6212189;23;1301;-67
2022/07/30 06:52:03;;;;;;;;;;;21.90;61.00;;;;;;6212243;23;1136;-67
2022/07/30 06:54:29;;;;;;;;;;;21.80;61.20;;;;;;6187912;23;1113;-67
2022/07/30 06:56:54;;;;;;;;;;;21.80;60.20;;;;;;6212239;23;1003;-66
2022/07/30 06:59:19;;;;;;;;;;;21.80;60.00;;;;;;6214331;23;1233;-67
2022/07/30 07:01:45;;;;;;;;;;;21.90;59.70;;;;;;6187818;23;1583;-67
2022/07/30 07:04:10;;;;;;;;;;;21.80;59.70;;;;;;6213781;23;773;-67
2022/07/30 07:06:36;;;;;;;;;;;21.90;60.10;;;;;;6212457;23;1942;-67
2022/07/30 07:09:02;;;;;;;;;;;21.80;59.50;;;;;;6213003;23;1309;-67
2022/07/30 07:11:27;;;;;;;;;;;21.80;59.30;;;;;;6213629;23;772;-67
2022/07/30 07:13:53;;;;;;;;;;;21.80;59.40;;;;;;6214821;23;816;-68
2022/07/30 07:16:24;;;;;;;;;;;21.80;59.60;;;;;;6212998;23;883;-67
2022/07/30 07:18:53;;;;;;;;;;;21.80;59.30;;;;;;6214095;23;1230;-67
2022/07/30 07:21:18;;;;;;;;;;;21.80;59.90;;;;;;6213571;23;799;-67
2022/07/30 07:23:44;;;;;;;;;;;21.80;59.10;;;;;;6214679;23;832;-67
2022/07/30 07:26:10;;;;;;;;;;;21.80;59.20;;;;;;6214114;23;1939;-67
2022/07/30 07:28:35;;;;;;;;;;;21.80;59.40;;;;;;6213938;23;800;-67
2022/07/30 07:31:02;;;;;;;;;;;21.80;59.30;;;;;;6214700;23;1168;-67
2022/07/30 07:33:27;;;;;;;;;;;21.80;59.40;;;;;;6214630;23;870;-67
2022/07/30 07:35:54;;;;;;;;;;;21.80;59.60;;;;;;6214086;23;1143;-67
2022/07/30 07:38:19;;;;;;;;;;;21.80;59.30;;;;;;6216539;23;842;-67
2022/07/30 07:40:45;;;;;;;;;;;21.80;59.20;;;;;;6214692;23;1230;-67
2022/07/30 07:43:10;;;;;;;;;;;21.80;59.00;;;;;;6216695;23;848;-67
2022/07/30 07:45:35;;;;;;;;;;;21.80;59.10;;;;;;6215788;23;1904;-68
2022/07/30 07:48:01;;;;;;;;;;;21.80;59.30;;;;;;6215091;23;833;-67
2022/07/30 07:50:26;;;;;;;;;;;21.80;59.40;;;;;;6216279;23;1204;-67
2022/07/30 07:52:52;;;;;;;;;;;21.80;59.60;;;;;;6216515;23;843;-67
2022/07/30 07:55:17;;;;;;;;;;;21.80;59.70;;;;;;6214378;23;1318;-67
2022/07/30 07:57:44;;;;;;;;;;;21.80;59.60;;;;;;6214550;23;1053;-67
2022/07/30 08:00:10;;;;;;;;;;;21.80;59.60;;;;;;6214589;23;1453;-67
2022/07/30 08:02:35;;;;;;;;;;;21.80;59.60;;;;;;6190085;23;1081;-67
2022/07/30 08:05:02;;;;;;;;;;;21.80;59.70;;;;;;6215696;23;883;-67
2022/07/30 08:07:28;;;;;;;;;;;21.80;59.50;;;;;;6214183;23;1924;-67
2022/07/30 08:09:53;;;;;;;;;;;21.80;59.70;;;;;;6214420;23;1228;-67
2022/07/30 08:12:18;;;;;;;;;;;21.80;59.50;;;;;;6216561;23;854;-67
2022/07/30 08:14:44;;;;;;;;;;;21.80;59.40;;;;;;6215723;23;784;-67
2022/07/30 08:17:09;;;;;;;;;;;21.80;59.50;;;;;;6215770;23;843;-67
2022/07/30 08:19:35;;;;;;;;;;;21.80;59.60;;;;;;6189661;23;1379;-67
2022/07/30 08:22:00;;;;;;;;;;;21.80;59.40;;;;;;6215872;23;864;-67
2022/07/30 08:24:26;;;;;;;;;;;21.80;59.40;;;;;;6214368;23;1316;-67
2022/07/30 08:26:51;;;;;;;;;;;21.80;59.40;;;;;;6188863;23;1888;-67
2022/07/30 08:29:16;;;;;;;;;;;21.80;59.50;;;;;;6188951;23;1206;-67
2022/07/30 08:31:42;;;;;;;;;;;21.80;59.60;;;;;;6215993;23;851;-67
2022/07/30 08:34:08;;;;;;;;;;;21.80;59.50;;;;;;6215927;23;832;-66
2022/07/30 08:36:33;;;;;;;;;;;21.80;59.40;;;;;;6213646;23;877;-67
2022/07/30 08:38:59;;;;;;;;;;;21.80;59.50;;;;;;6214489;23;1194;-68
2022/07/30 08:41:24;;;;;;;;;;;21.80;59.60;;;;;;6215788;23;986;-68
2022/07/30 08:43:49;;;;;;;;;;;21.80;59.60;;;;;;6214750;23;801;-68
2022/07/30 08:46:15;;;;;;;;;;;21.80;59.40;;;;;;6212704;23;1932;-67
2022/07/30 08:48:41;;;;;;;;;;;21.80;59.80;;;;;;6214372;23;895;-68
2022/07/30 08:51:06;;;;;;;;;;;21.80;59.80;;;;;;6214272;23;1183;-67
2022/07/30 08:53:32;;;;;;;;;;;21.80;59.50;;;;;;6208297;23;843;-67
2022/07/30 08:55:58;;;;;;;;;;;21.80;59.60;;;;;;6207703;23;847;-67
2022/07/30 08:58:28;;;;;;;;;;;21.80;59.60;;;;;;6188265;23;979;-67
2022/07/30 09:00:54;;;;;;;;;;;21.80;59.70;;;;;;6212590;23;1667;-67
2022/07/30 09:03:19;;;;;;;;;;;21.80;59.70;;;;;;6213338;23;808;-66
2022/07/30 09:05:45;;;;;;;;;;;21.80;59.70;;;;;;6212329;23;1889;-66
2022/07/30 09:08:10;;;;;;;;;;;21.80;59.30;;;;;;6212919;23;796;-66
2022/07/30 09:10:36;;;;;;;;;;;21.80;59.20;;;;;;6214253;23;1210;-66
2022/07/30 09:13:01;;;;;;;;;;;21.80;59.40;;;;;;6212853;23;807;-66
2022/07/30 09:15:27;;;;;;;;;;;21.80;59.30;;;;;;6212719;23;1450;-67
2022/07/30 09:17:56;;;;;;;;;;;21.80;59.30;;;;;;6212415;23;827;-66
2022/07/30 09:20:23;;;;;;;;;;;21.80;59.40;;;;;;6214584;23;1232;-66
2022/07/30 09:22:49;;;;;;;;;;;21.80;59.50;;;;;;6212447;23;954;-67
2022/07/30 09:25:15;;;;;;;;;;;21.80;59.80;;;;;;6212149;23;966;-66
2022/07/30 09:27:44;;;;;;;;;;;21.80;59.80;;;;;;6212169;23;1932;-66
2022/07/30 09:30:09;;;;;;;;;;;21.80;59.90;;;;;;6212602;23;1301;-66
2022/07/30 09:32:51;;;;;;;;;;;21.80;59.90;;;;;;6212958;23;852;-67
2022/07/30 09:35:17;;;;;;;;;;;21.80;59.80;;;;;;6214489;23;862;-66
2022/07/30 09:37:43;;;;;;;;;;;21.80;60.00;;;;;;6211700;23;808;-66
2022/07/30 09:40:15;;;;;;;;;;;21.80;60.10;;;;;;6212714;23;1301;-66
2022/07/30 09:42:41;;;;;;;;;;;21.80;60.00;;;;;;6214759;23;816;-66
2022/07/30 09:45:06;;;;;;;;;;;21.80;60.00;;;;;;6214177;23;864;-66
2022/07/30 09:50:00;;;;;;;;;;;21.80;59.60;;;;;;6213441;23;851;-69
2022/07/30 09:52:27;;;;;;;;;;;21.80;59.40;;;;;;6187828;23;1284;-69
2022/07/30 09:54:52;;;;;;;;;;;21.80;59.60;;;;;;6214052;23;775;-69
2022/07/30 09:57:18;;;;;;;;;;;21.80;59.60;;;;;;6212657;23;896;-69
2022/07/30 09:59:43;;;;;;;;;;;21.80;59.80;;;;;;6215557;23;1279;-69
2022/07/30 10:02:09;;;;;;;;;;;21.80;59.80;;;;;;6215151;23;772;-69
2022/07/30 10:04:34;;;;;;;;;;;21.80;59.80;;;;;;6188460;23;900;-69
2022/07/30 10:07:00;;;;;;;;;;;21.80;59.70;;;;;;6214557;23;1955;-69
2022/07/30 10:09:25;;;;;;;;;;;21.80;59.80;;;;;;6188542;23;1236;-70
2022/07/30 10:11:52;;;;;;;;;;;21.80;59.80;;;;;;6215603;23;800;-69
2022/07/30 10:14:17;;;;;;;;;;;21.90;59.40;;;;;;6188456;23;833;-70
2022/07/30 10:16:43;;;;;;;;;;;21.90;59.00;;;;;;6187976;23;828;-68
2022/07/30 10:19:08;;;;;;;;;;;21.90;58.50;;;;;;6188623;23;1192;-69
2022/07/30 10:21:33;;;;;;;;;;;21.90;57.90;;;;;;6163780;23;1156;-69
2022/07/30 10:23:59;;;;;;;;;;;21.90;59.40;;;;;;6188210;23;911;-68
2022/07/30 10:26:24;;;;;;;;;;;21.90;58.30;;;;;;6187595;23;1932;-68
2022/07/30 10:28:50;;;;;;;;;;;22.00;57.80;;;;;;6188485;23;1181;-69
2022/07/30 10:31:15;;;;;;;;;;;22.00;57.70;;;;;;6188399;23;879;-69
2022/07/30 10:33:41;;;;;;;;;;;22.00;58.40;;;;;;6214145;23;871;-68
2022/07/30 10:36:09;;;;;;;;;;;22.00;59.20;;;;;;6214316;23;891;-69
2022/07/30 10:38:36;;;;;;;;;;;22.00;59.20;;;;;;6188502;23;1275;-69
2022/07/30 10:41:20;;;;;;;;;;;22.00;58.70;;;;;;6188823;23;848;-70
2022/07/30 10:44:05;;;;;;;;;;;22.00;59.10;;;;;;6188058;23;836;-70
2022/07/30 10:46:33;;;;;;;;;;;21.90;59.30;;;;;;6214328;23;1897;-69
2022/07/30 10:49:12;;;;;;;;;;;21.90;59.40;;;;;;6232083;22;1207;-69
2022/07/30 10:51:47;;;;;;;;;;;21.90;59.30;;;;;;6193548;23;1305;-69
2022/07/30 10:54:31;;;;;;;;;;;21.90;59.50;;;;;;6245093;23;815;-69
2022/07/30 10:57:06;;;;;;;;;;;21.90;59.50;;;;;;6244337;23;859;-69
2022/07/30 10:59:50;;;;;;;;;;;21.90;58.80;;;;;;6244554;23;1159;-69
2022/07/30 11:02:15;;;;;;;;;;;21.90;58.40;;;;;;6245725;23;1001;-69
2022/07/30 11:04:41;;;;;;;;;;;22.00;57.90;;;;;;6247083;23;1041;-69
2022/07/30 11:07:26;;;;;;;;;;;22.00;57.60;;;;;;6219221;23;1893;-69
2022/07/30 11:09:59;;;;;;;;;;;22.00;57.10;;;;;;6246959;23;855;-69
2022/07/30 11:12:44;;;;;;;;;;;22.00;57.30;;;;;;6220760;23;828;-69
2022/07/30 11:15:13;;;;;;;;;;;22.10;57.10;;;;;;6246777;23;825;-69
2022/07/30 11:17:57;;;;;;;;;;;22.10;57.40;;;;;;6219452;23;1186;-69
2022/07/30 11:20:22;;;;;;;;;;;22.10;57.00;;;;;;6246709;23;1033;-69
2022/07/30 11:22:48;;;;;;;;;;;22.10;57.20;;;;;;6220337;23;1065;-69
2022/07/30 11:25:26;;;;;;;;;;;22.10;57.80;;;;;;6246789;23;768;-69
2022/07/30 11:27:51;;;;;;;;;;;22.10;57.40;;;;;;6246893;23;1922;-69
2022/07/30 11:30:20;;;;;;;;;;;22.20;57.30;;;;;;6220422;23;879;-69
2022/07/30 11:32:48;;;;;;;;;;;22.20;56.80;;;;;;6246658;23;925;-69
2022/07/30 11:35:26;;;;;;;;;;;22.20;56.50;;;;;;6220237;23;1068;-69
2022/07/30 11:38:08;;;;;;;;;;;22.20;56.50;;;;;;6246755;23;1269;-69
2022/07/30 11:40:34;;;;;;;;;;;22.20;56.70;;;;;;6220412;23;792;-70
2022/07/30 11:43:15;;;;;;;;;;;22.30;56.60;;;;;;6220233;23;827;-69
2022/07/30 11:45:40;;;;;;;;;;;22.30;56.80;;;;;;6245865;23;1991;-70
2022/07/30 11:48:10;;;;;;;;;;;22.30;56.80;;;;;;6215209;23;1222;-69
2022/07/30 11:50:35;;;;;;;;;;;22.30;56.40;;;;;;6216705;23;830;-69
2022/07/30 11:53:04;;;;;;;;;;;22.30;55.80;;;;;;6216500;23;998;-69
2022/07/30 11:55:31;;;;;;;;;;;22.30;55.80;;;;;;6216009;23;942;-69
2022/07/30 11:57:57;;;;;;;;;;;22.30;55.00;;;;;;6216394;23;1366;-69
2022/07/30 12:00:22;;;;;;;;;;;22.30;55.30;;;;;;6216614;23;941;-69
2022/07/30 12:02:48;;;;;;;;;;;22.40;55.50;;;;;;6214998;23;1380;-69
2022/07/30 12:05:14;;;;;;;;;;;22.40;55.30;;;;;;6214852;23;1227;-70
2022/07/30 12:07:39;;;;;;;;;;;22.40;55.20;;;;;;6215408;23;1897;-70
2022/07/30 12:10:15;;;;;;;;;;;22.40;55.20;;;;;;6215610;23;784;-70
2022/07/30 12:12:40;;;;;;;;;;;22.40;55.10;;;;;;6215083;23;780;-70
2022/07/30 12:15:06;;;;;;;;;;;22.40;55.00;;;;;;6213962;23;776;-70
2022/07/30 12:17:50;;;;;;;;;;;22.40;54.20;;;;;;6214076;23;1370;-71
2022/07/30 12:20:16;;;;;;;;;;;22.40;54.00;;;;;;6215859;23;705;-71
2022/07/30 12:22:41;;;;;;;;;;;22.40;54.10;;;;;;6216396;23;733;-71
2022/07/30 12:25:07;;;;;;;;;;;22.40;54.70;;;;;;6214314;23;809;-70
2022/07/30 12:27:32;;;;;;;;;;;22.40;54.30;;;;;;6215196;23;1888;-71
2022/07/30 12:29:58;;;;;;;;;;;22.50;54.40;;;;;;6203564;23;998;-73
2022/07/30 12:32:23;;;;;;;;;;;22.40;54.00;;;;;;6214774;23;812;-74
2022/07/30 12:34:55;;;;;;;;;;;22.40;54.30;;;;;;6213440;23;847;-74
2022/07/30 12:37:20;;;;;;;;;;;22.40;54.20;;;;;;6214034;23;1260;-68
2022/07/30 12:39:45;;;;;;;;;;;22.40;54.20;;;;;;6214280;23;923;-69
2022/07/30 12:42:17;;;;;;;;;;;22.50;54.30;;;;;;6213254;23;916;-70
2022/07/30 12:44:43;;;;;;;;;;;22.40;55.00;;;;;;6214535;23;811;-70
2022/07/30 12:47:19;;;;;;;;;;;22.40;55.30;;;;;;6213710;23;1931;-71
2022/07/30 12:49:44;;;;;;;;;;;22.40;55.40;;;;;;6214204;23;975;-70
2022/07/30 12:52:18;;;;;;;;;;;22.40;54.10;;;;;;6188908;23;1232;-69
2022/07/30 12:54:43;;;;;;;;;;;22.50;53.70;;;;;;6216263;23;945;-69
2022/07/30 12:57:09;;;;;;;;;;;22.40;52.80;;;;;;6214839;23;855;-69
2022/07/30 12:59:37;;;;;;;;;;;22.50;52.20;;;;;;6215947;23;1242;-69
2022/07/30 13:02:02;;;;;;;;;;;22.50;52.80;;;;;;6215282;23;815;-69
2022/07/30 13:04:28;;;;;;;;;;;22.50;53.00;;;;;;6215729;23;781;-69
2022/07/30 13:07:09;;;;;;;;;;;22.50;53.10;;;;;;6188073;23;1889;-70
2022/07/30 13:09:36;;;;;;;;;;;22.50;53.30;;;;;;6214341;23;1282;-71
2022/07/30 13:12:01;;;;;;;;;;;22.50;52.30;;;;;;6214080;23;816;-68
2022/07/30 13:14:27;;;;;;;;;;;22.50;52.60;;;;;;6216119;23;785;-67
2022/07/30 13:16:52;;;;;;;;;;;22.50;52.90;;;;;;6214562;23;882;-70
2022/07/30 13:19:18;;;;;;;;;;;22.50;53.80;;;;;;6214111;23;1259;-69
2022/07/30 13:21:44;;;;;;;;;;;22.50;53.50;;;;;;6214173;23;695;-70
2022/07/30 13:24:11;;;;;;;;;;;22.50;52.60;;;;;;6215870;23;745;-70
2022/07/30 13:26:36;;;;;;;;;;;22.50;52.40;;;;;;6214311;23;1892;-67
2022/07/30 13:29:02;;;;;;;;;;;22.50;52.50;;;;;;6215275;23;1262;-69
2022/07/30 13:31:27;;;;;;;;;;;22.50;52.40;;;;;;6213579;23;986;-69
2022/07/30 13:33:53;;;;;;;;;;;22.50;52.50;;;;;;6214867;23;827;-68
2022/07/30 13:36:18;;;;;;;;;;;22.50;52.50;;;;;;6187934;23;1482;-69
2022/07/30 13:38:44;;;;;;;;;;;22.50;52.40;;;;;;6215584;23;1268;-69
2022/07/30 13:41:09;;;;;;;;;;;22.60;52.10;;;;;;6213676;23;815;-69
2022/07/30 13:43:35;;;;;;;;;;;22.60;52.60;;;;;;6215406;23;773;-69
2022/07/30 13:46:01;;;;;;;;;;;22.60;52.30;;;;;;6187988;23;1882;-68
2022/07/30 13:48:27;;;;;;;;;;;22.60;52.60;;;;;;6213838;23;1283;-68
2022/07/30 13:50:52;;;;;;;;;;;22.50;52.30;;;;;;6213952;23;1316;-68
2022/07/30 13:53:18;;;;;;;;;;;22.60;52.60;;;;;;6213231;23;797;-69
2022/07/30 13:55:45;;;;;;;;;;;22.60;52.50;;;;;;6213636;23;1318;-71
2022/07/30 13:58:10;;;;;;;;;;;22.60;52.60;;;;;;6214946;23;1289;-72
2022/07/30 14:00:37;;;;;;;;;;;22.60;52.70;;;;;;6215359;23;796;-73
2022/07/30 14:03:03;;;;;;;;;;;22.60;52.80;;;;;;6215370;23;843;-71
2022/07/30 14:05:29;;;;;;;;;;;22.50;52.70;;;;;;6188685;23;1326;-71
2022/07/30 14:07:54;;;;;;;;;;;22.60;52.80;;;;;;6214641;23;1944;-71
2022/07/30 14:10:22;;;;;;;;;;;22.60;52.60;;;;;;6213914;23;705;-72
2022/07/30 14:12:49;;;;;;;;;;;22.60;52.20;;;;;;6213938;23;832;-72
2022/07/30 14:15:14;;;;;;;;;;;22.60;52.00;;;;;;6213741;23;797;-70
2022/07/30 14:17:40;;;;;;;;;;;22.50;52.10;;;;;;6212668;23;1286;-71
2022/07/30 14:20:05;;;;;;;;;;;22.60;52.20;;;;;;6215358;23;820;-72
2022/07/30 14:22:31;;;;;;;;;;;22.60;51.80;;;;;;6213346;23;1010;-70
2022/07/30 14:24:58;;;;;;;;;;;22.60;51.90;;;;;;6213671;23;844;-69
2022/07/30 14:27:24;;;;;;;;;;;22.60;52.10;;;;;;6212948;23;1963;-65
2022/07/30 14:29:49;;;;;;;;;;;22.50;52.70;;;;;;6214618;23;796;-66
2022/07/30 14:32:15;;;;;;;;;;;22.50;52.60;;;;;;6213622;23;1533;-66
2022/07/30 14:34:40;;;;;;;;;;;22.50;52.30;;;;;;6214811;23;830;-66